Time;durP1;ratioP1;P1;durP2;ratioP2;P2;SDS_P1;SDS_P2;PMS_P1;PMS_P2;Temp;Humidity;BMP_temperature;BMP_pressure;BME280_temperature;BME280_humidity;BME280_pressure;Samples;Min_cycle;Max_cycle;Signal;HPM_P1;HPM_P2
2023/09/14 00:00:08;;;;;;;5.25;2.80;;;17.20;99.90;;;;;;2089044;28;20506;-71
2023/09/14 00:01:10;;;;;;;3.65;2.38;;;17.20;99.90;;;;;;2086605;28;20060;-71
2023/09/14 00:02:11;;;;;;;3.25;2.30;;;17.20;99.90;;;;;;2092040;28;20047;-73
2023/09/14 00:03:12;;;;;;;3.80;2.22;;;17.20;99.90;;;;;;2087663;28;20036;-72
2023/09/14 00:04:13;;;;;;;3.10;2.38;;;17.20;99.90;;;;;;2086860;28;20044;-73
2023/09/14 00:05:14;;;;;;;4.38;2.20;;;17.20;99.90;;;;;;2088282;28;20055;-73
2023/09/14 00:06:15;;;;;;;3.95;2.60;;;17.20;99.90;;;;;;2085388;28;20024;-73
2023/09/14 00:07:15;;;;;;;3.22;2.45;;;17.20;99.90;;;;;;2086646;28;20021;-73
2023/09/14 00:08:17;;;;;;;2.70;2.15;;;17.10;99.90;;;;;;2092582;28;23577;-73
2023/09/14 00:09:17;;;;;;;4.78;2.65;;;17.10;99.90;;;;;;2088508;28;20518;-73
2023/09/14 00:10:18;;;;;;;3.50;2.60;;;17.00;99.90;;;;;;2087094;28;20024;-73
2023/09/14 00:11:19;;;;;;;6.15;2.80;;;17.00;99.90;;;;;;2087699;28;20106;-73
2023/09/14 00:12:20;;;;;;;3.45;2.70;;;16.90;99.90;;;;;;2087168;28;20037;-73
2023/09/14 00:13:20;;;;;;;4.75;2.90;;;16.90;99.90;;;;;;2089120;28;20078;-73
2023/09/14 00:14:21;;;;;;;4.85;3.15;;;16.90;99.90;;;;;;2087187;28;20036;-72
2023/09/14 00:15:22;;;;;;;5.93;3.40;;;16.90;99.90;;;;;;2092725;28;20039;-73
2023/09/14 00:16:22;;;;;;;5.80;3.42;;;16.90;99.90;;;;;;2090135;28;20569;-72
2023/09/14 00:17:23;;;;;;;6.57;3.45;;;16.90;99.90;;;;;;2085773;28;20033;-72
2023/09/14 00:18:23;;;;;;;6.13;3.40;;;16.90;99.90;;;;;;2092250;28;20036;-72
2023/09/14 00:19:25;;;;;;;8.02;3.58;;;16.90;99.90;;;;;;2091426;28;20020;-73
2023/09/14 00:20:30;;;;;;;6.47;3.72;;;16.80;99.90;;;;;;2090795;28;20090;-72
2023/09/14 00:21:31;;;;;;;4.88;3.38;;;16.80;99.90;;;;;;2090396;28;20107;-72
2023/09/14 00:22:31;;;;;;;3.28;2.70;;;16.80;99.90;;;;;;2092052;28;20077;-72
2023/09/14 00:23:32;;;;;;;4.97;3.42;;;16.90;99.90;;;;;;2087681;28;20599;-72
2023/09/14 00:24:32;;;;;;;5.32;3.53;;;16.90;99.90;;;;;;2088642;28;20443;-73
2023/09/14 00:25:33;;;;;;;7.85;3.70;;;16.90;99.90;;;;;;2092932;28;20511;-72
2023/09/14 00:26:33;;;;;;;5.18;3.40;;;16.90;99.90;;;;;;2092303;28;20507;-72
2023/09/14 00:27:35;;;;;;;5.45;3.58;;;16.90;99.90;;;;;;2091217;28;20045;-73
2023/09/14 00:28:35;;;;;;;6.60;3.95;;;16.90;99.90;;;;;;2092834;28;20024;-72
2023/09/14 00:29:36;;;;;;;7.38;4.10;;;16.90;99.90;;;;;;2083046;28;20036;-72
2023/09/14 00:30:36;;;;;;;4.65;3.58;;;16.90;99.90;;;;;;2082852;28;20044;-73
2023/09/14 00:31:38;;;;;;;6.03;3.80;;;16.90;99.90;;;;;;2089485;28;20060;-73
2023/09/14 00:32:40;;;;;;;6.32;3.70;;;17.00;99.90;;;;;;2090488;28;20033;-72
2023/09/14 00:33:40;;;;;;;5.78;3.90;;;16.90;99.90;;;;;;2079389;28;20421;-72
2023/09/14 00:34:41;;;;;;;6.35;4.20;;;16.90;99.90;;;;;;2082267;28;20043;-72
2023/09/14 00:35:45;;;;;;;5.43;3.90;;;16.90;99.90;;;;;;2082312;28;20056;-72
2023/09/14 00:36:45;;;;;;;5.68;3.85;;;16.90;99.90;;;;;;2082125;28;20104;-72
2023/09/14 00:37:47;;;;;;;6.22;3.70;;;16.90;99.90;;;;;;2090211;28;20473;-72
2023/09/14 00:38:48;;;;;;;5.95;3.65;;;16.80;99.90;;;;;;2089075;28;20780;-72
2023/09/14 00:39:48;;;;;;;5.00;3.50;;;16.90;99.90;;;;;;2078005;28;20029;-72
2023/09/14 00:40:51;;;;;;;5.15;3.50;;;16.90;99.90;;;;;;2078518;28;20028;-73
2023/09/14 00:41:52;;;;;;;5.07;3.60;;;16.80;99.90;;;;;;2087687;28;20025;-72
2023/09/14 00:42:52;;;;;;;5.22;3.40;;;16.80;99.90;;;;;;2087695;28;20056;-73
2023/09/14 00:43:53;;;;;;;4.82;3.40;;;16.80;99.90;;;;;;2090003;28;20028;-72
2023/09/14 00:44:53;;;;;;;6.63;3.40;;;16.70;99.90;;;;;;2088335;28;20108;-74
2023/09/14 00:45:55;;;;;;;4.40;3.17;;;16.70;99.90;;;;;;2090389;28;20034;-73
2023/09/14 00:46:55;;;;;;;5.75;3.35;;;16.60;99.90;;;;;;2083116;28;20024;-71
2023/09/14 00:47:58;;;;;;;5.85;3.80;;;16.60;99.90;;;;;;2090897;28;20032;-71
2023/09/14 00:49:00;;;;;;;4.85;3.13;;;16.60;99.90;;;;;;2079673;28;20246;-72
2023/09/14 00:50:03;;;;;;;4.90;3.38;;;16.60;99.90;;;;;;2085649;28;20488;-71
2023/09/14 00:51:04;;;;;;;6.03;3.42;;;16.60;99.90;;;;;;2091252;28;20031;-72
2023/09/14 00:52:06;;;;;;;6.72;3.45;;;16.60;99.90;;;;;;2086946;28;20423;-72
2023/09/14 00:53:11;;;;;;;5.43;3.30;;;16.60;99.90;;;;;;2077652;28;20024;-71
2023/09/14 00:54:11;;;;;;;6.30;3.28;;;16.50;99.90;;;;;;2089843;28;20025;-72
2023/09/14 00:55:17;;;;;;;4.60;3.30;;;16.50;99.90;;;;;;2091030;28;20120;-71
2023/09/14 00:56:18;;;;;;;5.07;3.40;;;16.50;99.90;;;;;;2089885;28;20020;-72
2023/09/14 00:57:20;;;;;;;4.55;3.30;;;16.40;99.90;;;;;;2089186;28;20460;-74
2023/09/14 00:58:21;;;;;;;6.30;3.00;;;16.40;99.90;;;;;;2084326;28;20112;-74
2023/09/14 00:59:22;;;;;;;7.32;3.60;;;16.40;99.90;;;;;;2091050;28;20069;-74
2023/09/14 01:00:23;;;;;;;5.55;3.55;;;16.40;99.90;;;;;;2090121;28;20021;-74
2023/09/14 01:01:23;;;;;;;5.18;3.53;;;16.50;99.90;;;;;;2087485;28;20164;-74
2023/09/14 01:02:26;;;;;;;5.60;3.63;;;16.50;99.90;;;;;;2093379;28;20074;-74
2023/09/14 01:03:27;;;;;;;6.53;3.75;;;16.40;99.90;;;;;;2091750;28;20025;-74
2023/09/14 01:04:29;;;;;;;5.88;3.60;;;16.40;99.90;;;;;;2088298;28;20036;-74
2023/09/14 01:05:31;;;;;;;5.30;3.70;;;16.40;99.90;;;;;;2088786;28;20299;-74
2023/09/14 01:06:32;;;;;;;7.45;3.88;;;16.40;99.90;;;;;;2090811;28;20028;-74
2023/09/14 01:07:33;;;;;;;6.72;3.85;;;16.40;99.90;;;;;;2089249;28;20382;-80
2023/09/14 01:08:34;;;;;;;4.32;3.30;;;16.40;99.90;;;;;;2088025;28;20036;-79
2023/09/14 01:09:35;;;;;;;6.80;3.55;;;16.40;99.90;;;;;;2091402;28;20516;-80
2023/09/14 01:10:36;;;;;;;5.07;3.50;;;16.40;99.90;;;;;;2091259;28;20025;-79
2023/09/14 01:11:37;;;;;;;6.40;3.58;;;16.40;99.90;;;;;;2091034;28;20056;-79
2023/09/14 01:12:38;;;;;;;5.43;3.30;;;16.40;99.90;;;;;;2089481;28;20035;-81
2023/09/14 01:13:57;;;;;;;6.28;3.70;;;16.40;99.90;;;;;;2091075;28;20526;-80
2023/09/14 01:15:21;;;;;;;5.80;3.47;;;16.40;99.90;;;;;;2088937;28;20174;-79
2023/09/14 01:16:35;;;;;;;5.95;3.55;;;16.40;99.90;;;;;;2092415;28;20052;-80
2023/09/14 01:18:13;;;;;;;8.18;3.72;;;16.40;99.90;;;;;;2088443;28;20103;-82
2023/09/14 01:19:41;;;;;;;6.65;3.60;;;16.40;99.90;;;;;;2089552;28;20093;-82
2023/09/14 01:20:53;;;;;;;7.07;3.60;;;16.40;99.90;;;;;;2080865;28;21271;-82
2023/09/14 01:22:21;;;;;;;8.82;3.67;;;16.40;99.90;;;;;;2082225;28;20033;-82
2023/09/14 01:23:31;;;;;;;6.18;3.72;;;16.40;99.90;;;;;;2093153;28;20472;-84
2023/09/14 01:24:58;;;;;;;6.20;3.67;;;16.40;99.90;;;;;;2082874;28;20021;-81
2023/09/14 01:26:00;;;;;;;5.63;3.55;;;16.40;99.90;;;;;;2086642;28;20024;-82
2023/09/14 01:27:03;;;;;;;7.00;4.00;;;16.40;99.90;;;;;;2082550;28;20042;-81
2023/09/14 01:28:11;;;;;;;7.68;3.90;;;16.40;99.90;;;;;;2086094;28;20032;-83
2023/09/14 01:29:12;;;;;;;5.60;3.70;;;16.50;99.90;;;;;;2089171;28;20033;-81
2023/09/14 01:30:12;;;;;;;6.95;4.10;;;16.40;99.90;;;;;;2083313;28;20106;-83
2023/09/14 01:31:13;;;;;;;6.20;4.10;;;16.40;99.90;;;;;;2084906;28;20033;-80
2023/09/14 01:32:14;;;;;;;7.40;3.85;;;16.40;99.90;;;;;;2091856;28;20021;-83
2023/09/14 01:33:15;;;;;;;9.90;4.30;;;16.40;99.90;;;;;;2092455;28;20051;-84
2023/09/14 01:34:17;;;;;;;7.90;4.25;;;16.40;99.90;;;;;;2093190;28;20040;-81
2023/09/14 01:35:18;;;;;;;7.38;4.15;;;16.40;99.90;;;;;;2092176;28;20523;-80
2023/09/14 01:36:55;;;;;;;8.52;4.90;;;16.40;99.90;;;;;;2088108;28;20037;-82
2023/09/14 01:37:58;;;;;;;8.20;4.57;;;16.40;99.90;;;;;;2086524;28;20021;-82
2023/09/14 01:39:00;;;;;;;9.82;4.75;;;16.40;99.90;;;;;;2091064;28;20538;-83
2023/09/14 01:40:04;;;;;;;7.32;4.60;;;16.40;99.90;;;;;;2083603;28;20028;-81
2023/09/14 01:41:06;;;;;;;8.93;4.93;;;16.40;99.90;;;;;;2089640;28;20048;-80
2023/09/14 01:42:07;;;;;;;8.25;5.05;;;16.40;99.90;;;;;;2090638;28;20072;-81
2023/09/14 01:43:08;;;;;;;8.93;5.00;;;16.40;99.90;;;;;;2070654;28;20559;-81
2023/09/14 01:44:09;;;;;;;9.13;4.75;;;16.30;99.90;;;;;;2074913;28;20033;-79
2023/09/14 01:45:11;;;;;;;8.07;4.65;;;16.40;99.90;;;;;;2081717;28;20041;-80
2023/09/14 01:46:12;;;;;;;9.68;4.82;;;16.40;99.90;;;;;;2080661;28;20140;-79
2023/09/14 01:47:13;;;;;;;6.47;4.65;;;16.40;99.90;;;;;;2084721;28;20483;-79
2023/09/14 01:48:15;;;;;;;7.88;4.53;;;16.30;99.90;;;;;;2078855;28;20124;-73
2023/09/14 01:49:16;;;;;;;7.53;4.40;;;16.30;99.90;;;;;;2086497;28;20041;-75
2023/09/14 01:50:16;;;;;;;7.57;4.43;;;16.30;99.90;;;;;;2092493;28;20036;-81
2023/09/14 01:51:17;;;;;;;7.50;4.53;;;16.30;99.90;;;;;;2089907;28;20519;-75
2023/09/14 01:52:17;;;;;;;7.90;4.90;;;16.20;99.90;;;;;;2082448;28;20299;-70
2023/09/14 01:53:18;;;;;;;7.65;4.10;;;16.20;99.90;;;;;;2091370;28;20036;-69
2023/09/14 01:54:19;;;;;;;7.05;4.32;;;16.20;99.90;;;;;;2101436;28;20111;-69
2023/09/14 01:55:19;;;;;;;8.10;4.18;;;16.20;99.90;;;;;;2083451;28;20033;-69
2023/09/14 01:56:20;;;;;;;8.75;3.92;;;16.20;99.90;;;;;;2071670;28;20046;-69
2023/09/14 01:57:21;;;;;;;5.35;4.18;;;16.20;99.90;;;;;;2080241;28;20022;-69
2023/09/14 01:58:21;;;;;;;5.10;4.10;;;16.20;99.90;;;;;;2078221;28;20038;-69
2023/09/14 01:59:23;;;;;;;5.80;4.05;;;16.10;99.90;;;;;;2088636;28;20496;-69
2023/09/14 02:00:25;;;;;;;5.80;3.85;;;16.20;99.90;;;;;;2086666;28;20044;-69
2023/09/14 02:01:26;;;;;;;6.53;3.88;;;16.20;99.90;;;;;;2091307;28;20017;-69
2023/09/14 02:02:27;;;;;;;6.28;3.53;;;16.20;99.90;;;;;;2093452;28;20077;-69
2023/09/14 02:03:27;;;;;;;6.97;3.75;;;16.20;99.90;;;;;;2089972;28;20123;-70
2023/09/14 02:04:28;;;;;;;6.57;3.72;;;16.20;99.90;;;;;;2089768;28;20028;-70
2023/09/14 02:05:28;;;;;;;4.25;3.60;;;16.20;99.90;;;;;;2085617;28;20569;-70
2023/09/14 02:06:29;;;;;;;7.32;3.58;;;16.20;99.90;;;;;;2090706;28;20067;-69
2023/09/14 02:07:30;;;;;;;5.65;3.50;;;16.20;99.90;;;;;;2091876;28;20035;-70
2023/09/14 02:08:31;;;;;;;6.63;3.70;;;16.20;99.90;;;;;;2091673;28;20399;-70
2023/09/14 02:09:31;;;;;;;6.18;3.63;;;16.20;99.90;;;;;;2092035;28;20024;-69
2023/09/14 02:10:32;;;;;;;6.60;4.00;;;16.20;99.90;;;;;;2088572;28;20399;-70
2023/09/14 02:11:32;;;;;;;3.97;3.55;;;16.20;99.90;;;;;;2082063;28;20025;-70
2023/09/14 02:12:33;;;;;;;6.05;3.85;;;16.20;99.90;;;;;;2091357;28;20032;-70
2023/09/14 02:13:34;;;;;;;6.22;3.80;;;16.20;99.90;;;;;;2092559;28;20046;-70
2023/09/14 02:14:35;;;;;;;6.63;4.18;;;16.20;99.90;;;;;;2090164;28;20392;-70
2023/09/14 02:15:35;;;;;;;4.82;3.90;;;16.20;99.90;;;;;;2090558;28;20051;-70
2023/09/14 02:16:36;;;;;;;5.53;4.10;;;16.20;99.90;;;;;;2087917;28;20576;-70
2023/09/14 02:17:37;;;;;;;7.20;4.55;;;16.20;99.90;;;;;;2085948;28;20475;-70
2023/09/14 02:18:38;;;;;;;7.75;4.38;;;16.20;99.90;;;;;;2089453;28;20111;-70
2023/09/14 02:19:38;;;;;;;5.45;4.40;;;16.20;99.90;;;;;;2088413;28;20029;-70
2023/09/14 02:20:39;;;;;;;6.80;4.47;;;16.20;99.90;;;;;;2087771;28;20021;-70
2023/09/14 02:21:39;;;;;;;7.07;4.22;;;16.10;99.90;;;;;;2091097;28;20033;-70
2023/09/14 02:22:40;;;;;;;8.30;4.47;;;16.10;99.90;;;;;;2089044;28;20052;-70
2023/09/14 02:23:40;;;;;;;8.55;4.68;;;16.10;99.90;;;;;;2086050;28;20480;-69
2023/09/14 02:24:41;;;;;;;5.13;3.83;;;16.10;99.90;;;;;;2091565;28;20458;-71
2023/09/14 02:25:43;;;;;;;7.03;4.60;;;16.10;99.90;;;;;;2089900;28;20420;-71
2023/09/14 02:26:44;;;;;;;5.70;4.07;;;16.10;99.90;;;;;;2078901;28;20041;-71
2023/09/14 02:27:44;;;;;;;7.00;4.30;;;16.10;99.90;;;;;;2093846;28;20226;-71
2023/09/14 02:28:45;;;;;;;6.45;3.53;;;16.10;99.90;;;;;;2093627;28;20035;-71
2023/09/14 02:29:46;;;;;;;7.85;3.90;;;16.10;99.90;;;;;;2090277;28;20029;-71
2023/09/14 02:30:47;;;;;;;5.68;3.65;;;16.00;99.90;;;;;;2077309;28;20017;-71
2023/09/14 02:31:48;;;;;;;6.95;3.42;;;16.00;99.90;;;;;;2082157;28;20454;-71
2023/09/14 02:32:49;;;;;;;6.03;3.50;;;15.90;99.90;;;;;;2080842;28;20148;-69
2023/09/14 02:33:49;;;;;;;4.75;3.33;;;15.90;99.90;;;;;;2090929;28;20024;-69
2023/09/14 02:34:50;;;;;;;5.53;3.10;;;15.90;99.90;;;;;;2091712;28;20133;-70
2023/09/14 02:35:51;;;;;;;6.13;3.50;;;15.90;99.90;;;;;;2080393;28;20021;-69
2023/09/14 02:36:52;;;;;;;6.53;3.40;;;15.90;99.90;;;;;;2086114;28;20027;-71
2023/09/14 02:37:52;;;;;;;5.57;3.40;;;15.80;99.90;;;;;;2092191;28;20247;-69
2023/09/14 02:38:53;;;;;;;6.28;3.38;;;15.80;99.90;;;;;;2090156;28;20813;-70
2023/09/14 02:39:53;;;;;;;5.90;3.50;;;15.80;99.90;;;;;;2075681;28;20033;-70
2023/09/14 02:40:55;;;;;;;6.05;3.30;;;15.70;99.90;;;;;;2083621;28;20487;-69
2023/09/14 02:41:56;;;;;;;5.85;3.25;;;15.80;99.90;;;;;;2085759;28;20150;-69
2023/09/14 02:42:57;;;;;;;5.68;3.25;;;15.70;99.90;;;;;;2079932;28;20053;-69
2023/09/14 02:43:58;;;;;;;6.78;3.33;;;15.70;99.90;;;;;;2088321;28;20025;-69
2023/09/14 02:44:58;;;;;;;8.35;3.30;;;15.60;99.90;;;;;;2100923;28;20495;-70
2023/09/14 02:45:59;;;;;;;5.45;3.80;;;15.60;99.90;;;;;;2094299;28;20054;-70
2023/09/14 02:47:00;;;;;;;7.30;3.65;;;15.60;99.90;;;;;;2091209;28;20049;-69
2023/09/14 02:48:00;;;;;;;5.18;3.53;;;15.50;99.90;;;;;;2092203;28;20474;-69
2023/09/14 02:49:01;;;;;;;6.68;3.55;;;15.60;99.90;;;;;;2090309;28;20020;-70
2023/09/14 02:50:02;;;;;;;7.25;3.63;;;15.60;99.90;;;;;;2086670;28;20431;-70
2023/09/14 02:51:03;;;;;;;6.00;3.20;;;15.60;99.90;;;;;;2088772;28;20095;-69
2023/09/14 02:52:04;;;;;;;6.53;3.53;;;15.60;99.90;;;;;;2090887;28;20294;-69
2023/09/14 02:53:05;;;;;;;7.10;3.70;;;15.60;99.90;;;;;;2088843;28;20036;-69
2023/09/14 02:54:05;;;;;;;6.22;3.47;;;15.60;99.90;;;;;;2086004;28;20115;-70
2023/09/14 02:55:07;;;;;;;6.65;3.72;;;15.50;99.90;;;;;;2089729;28;20415;-69
2023/09/14 02:56:09;;;;;;;7.53;3.53;;;15.50;99.90;;;;;;2088058;28;20104;-69
2023/09/14 02:57:10;;;;;;;6.13;3.40;;;15.60;99.90;;;;;;2090712;28;20503;-69
2023/09/14 02:58:11;;;;;;;7.15;3.10;;;15.50;99.90;;;;;;2079556;28;20033;-70
2023/09/14 02:59:15;;;;;;;5.50;3.53;;;15.60;99.90;;;;;;2081280;28;20203;-70
2023/09/14 03:00:17;;;;;;;4.88;3.33;;;15.50;99.90;;;;;;2088556;28;20036;-69
2023/09/14 03:01:20;;;;;;;5.10;3.50;;;15.50;99.90;;;;;;2092090;28;20028;-69
2023/09/14 03:02:22;;;;;;;5.97;3.50;;;15.40;99.90;;;;;;2086891;28;20353;-69
2023/09/14 03:03:23;;;;;;;6.65;3.45;;;15.50;99.90;;;;;;2083424;28;20029;-69
2023/09/14 03:04:23;;;;;;;5.28;3.25;;;15.50;99.90;;;;;;2091373;28;20028;-69
2023/09/14 03:05:24;;;;;;;4.60;3.00;;;15.50;99.90;;;;;;2093844;28;20029;-69
2023/09/14 03:06:25;;;;;;;5.90;3.08;;;15.40;99.90;;;;;;2083389;28;20917;-69
2023/09/14 03:07:26;;;;;;;5.43;3.20;;;15.40;99.90;;;;;;2087116;28;20721;-69
2023/09/14 03:08:29;;;;;;;3.42;2.80;;;15.40;99.90;;;;;;2083099;28;20057;-69
2023/09/14 03:09:29;;;;;;;5.75;3.40;;;15.50;99.90;;;;;;2082526;28;20557;-69
2023/09/14 03:10:30;;;;;;;4.95;2.88;;;15.40;99.90;;;;;;2086951;28;20167;-70
2023/09/14 03:11:31;;;;;;;6.43;3.28;;;15.40;99.90;;;;;;2086611;28;20016;-70
2023/09/14 03:12:31;;;;;;;7.20;3.67;;;15.40;99.90;;;;;;2086876;28;20452;-69
2023/09/14 03:13:32;;;;;;;5.68;3.50;;;15.40;99.90;;;;;;2075269;28;20048;-69
2023/09/14 03:14:33;;;;;;;5.82;3.58;;;15.40;99.90;;;;;;2094738;28;20486;-69
2023/09/14 03:15:34;;;;;;;9.18;3.97;;;15.40;99.90;;;;;;2091156;28;20267;-69
2023/09/14 03:16:35;;;;;;;5.45;3.28;;;15.40;99.90;;;;;;2075107;28;20075;-71
2023/09/14 03:17:36;;;;;;;5.40;3.40;;;15.40;99.90;;;;;;2083045;28;20021;-69
2023/09/14 03:18:36;;;;;;;6.72;3.72;;;15.40;99.90;;;;;;2095102;28;20028;-70
2023/09/14 03:19:37;;;;;;;7.97;4.00;;;15.40;99.90;;;;;;2084062;28;20060;-70
2023/09/14 03:20:38;;;;;;;8.27;4.18;;;15.30;99.90;;;;;;2090757;28;20017;-69
2023/09/14 03:21:39;;;;;;;6.20;3.92;;;15.30;99.90;;;;;;2083150;28;20029;-69
2023/09/14 03:22:40;;;;;;;7.22;3.85;;;15.30;99.90;;;;;;2091587;28;20028;-70
2023/09/14 03:23:40;;;;;;;6.32;3.67;;;15.30;99.90;;;;;;2094992;28;20029;-70
2023/09/14 03:24:41;;;;;;;8.30;3.60;;;15.30;99.90;;;;;;2094506;28;20036;-70
2023/09/14 03:25:42;;;;;;;5.63;3.50;;;15.20;99.90;;;;;;2088330;28;20055;-70
2023/09/14 03:26:43;;;;;;;6.13;3.40;;;15.20;99.90;;;;;;2085891;28;20044;-71
2023/09/14 03:27:44;;;;;;;8.32;3.83;;;15.20;99.90;;;;;;2094331;28;20032;-70
2023/09/14 03:28:47;;;;;;;6.95;3.35;;;15.20;99.90;;;;;;2085146;28;20033;-70
2023/09/14 03:29:49;;;;;;;7.13;3.33;;;15.20;99.90;;;;;;2087674;28;20025;-70
2023/09/14 03:30:49;;;;;;;6.82;3.17;;;15.20;99.90;;;;;;2091848;28;20027;-70
2023/09/14 03:31:52;;;;;;;7.15;3.50;;;15.20;99.90;;;;;;2086981;28;20577;-70
2023/09/14 03:32:53;;;;;;;7.80;3.42;;;15.20;99.90;;;;;;2081217;28;20096;-70
2023/09/14 03:33:54;;;;;;;6.85;3.15;;;15.20;99.90;;;;;;2090986;28;20307;-69
2023/09/14 03:34:54;;;;;;;8.10;3.53;;;15.20;99.90;;;;;;2091121;28;20028;-70
2023/09/14 03:35:55;;;;;;;5.38;3.10;;;15.20;99.90;;;;;;2079842;28;20025;-71
2023/09/14 03:36:56;;;;;;;6.15;3.53;;;15.20;99.90;;;;;;2084616;28;20526;-69
2023/09/14 03:37:56;;;;;;;6.68;3.28;;;15.20;99.90;;;;;;2090933;28;20040;-69
2023/09/14 03:38:57;;;;;;;7.05;3.33;;;15.20;99.90;;;;;;2088421;28;20391;-69
2023/09/14 03:40:08;;;;;;;6.25;3.03;;;15.30;99.90;;;;;;2084259;28;20473;-69
2023/09/14 03:41:08;;;;;;;5.55;3.47;;;15.30;99.90;;;;;;2083168;28;20098;-69
2023/09/14 03:42:10;;;;;;;7.00;3.42;;;15.30;99.90;;;;;;2091192;28;20040;-69
2023/09/14 03:43:11;;;;;;;8.65;3.80;;;15.30;99.90;;;;;;2079707;28;20029;-69
2023/09/14 03:44:11;;;;;;;6.38;3.90;;;15.30;99.90;;;;;;2081631;28;20036;-69
2023/09/14 03:45:13;;;;;;;6.65;3.67;;;15.20;99.90;;;;;;2082291;28;20028;-70
2023/09/14 03:46:14;;;;;;;7.00;3.47;;;15.20;99.90;;;;;;2084911;28;20527;-70
2023/09/14 03:47:15;;;;;;;8.38;4.10;;;15.20;99.90;;;;;;2089752;28;20334;-69
2023/09/14 03:48:15;;;;;;;7.75;3.70;;;15.10;99.90;;;;;;2089287;28;20036;-69
2023/09/14 03:49:17;;;;;;;6.05;3.53;;;15.20;99.90;;;;;;2092232;28;20032;-70
2023/09/14 03:50:18;;;;;;;6.00;3.20;;;15.20;99.90;;;;;;2089955;28;20444;-69
2023/09/14 03:51:18;;;;;;;7.90;3.70;;;15.10;99.90;;;;;;2093997;28;20107;-70
2023/09/14 03:52:19;;;;;;;8.75;3.85;;;15.20;99.90;;;;;;2088975;28;20044;-69
2023/09/14 03:53:19;;;;;;;7.90;3.80;;;15.20;99.90;;;;;;2087157;28;20427;-69
2023/09/14 03:54:20;;;;;;;6.57;3.95;;;15.20;99.90;;;;;;2079168;28;20060;-69
2023/09/14 03:55:21;;;;;;;5.93;3.42;;;15.20;99.90;;;;;;2090689;28;20183;-70
2023/09/14 03:56:22;;;;;;;6.50;3.33;;;15.20;99.90;;;;;;2086999;28;20033;-70
2023/09/14 03:57:24;;;;;;;8.25;3.35;;;15.20;99.90;;;;;;2086779;28;20029;-69
2023/09/14 03:58:26;;;;;;;4.97;3.58;;;15.20;99.90;;;;;;2078664;28;20487;-70
2023/09/14 03:59:27;;;;;;;8.45;3.80;;;15.20;99.90;;;;;;2082894;28;20654;-70
2023/09/14 04:00:28;;;;;;;7.05;3.67;;;15.20;99.90;;;;;;2088853;28;20309;-69
2023/09/14 04:01:29;;;;;;;8.05;3.70;;;15.10;99.90;;;;;;2079414;28;20096;-70
2023/09/14 04:02:30;;;;;;;9.10;4.03;;;15.20;99.90;;;;;;2089004;28;20078;-70
2023/09/14 04:03:31;;;;;;;9.23;3.95;;;15.10;99.90;;;;;;2086957;28;20088;-70
2023/09/14 04:04:31;;;;;;;9.43;3.95;;;15.20;99.90;;;;;;2090332;28;20029;-70
2023/09/14 04:05:32;;;;;;;6.03;3.58;;;15.10;99.90;;;;;;2092644;28;20360;-70
2023/09/14 04:06:32;;;;;;;9.82;3.60;;;15.20;99.90;;;;;;2085923;28;20024;-70
2023/09/14 04:07:33;;;;;;;7.03;3.60;;;15.20;99.90;;;;;;2082850;28;20515;-70
2023/09/14 04:08:34;;;;;;;7.95;3.80;;;15.20;99.90;;;;;;2084393;28;20028;-70
2023/09/14 04:09:34;;;;;;;7.28;3.50;;;15.10;99.90;;;;;;2085877;28;20485;-70
2023/09/14 04:10:41;;;;;;;7.70;3.70;;;15.10;99.90;;;;;;2090753;28;20036;-70
2023/09/14 04:11:42;;;;;;;6.07;3.95;;;15.10;99.90;;;;;;2079987;28;20167;-70
2023/09/14 04:12:43;;;;;;;7.15;3.38;;;15.10;99.90;;;;;;2085968;28;20493;-70
2023/09/14 04:13:44;;;;;;;7.38;3.70;;;15.20;99.90;;;;;;2079869;28;20044;-70
2023/09/14 04:14:44;;;;;;;8.70;3.80;;;15.20;99.90;;;;;;2085708;28;20488;-70
2023/09/14 04:15:45;;;;;;;6.50;3.50;;;15.20;99.90;;;;;;2093969;28;20213;-70
2023/09/14 04:16:47;;;;;;;6.47;3.35;;;15.20;99.90;;;;;;2084168;28;20036;-70
2023/09/14 04:17:48;;;;;;;7.13;3.75;;;15.20;99.90;;;;;;2082401;28;20047;-70
2023/09/14 04:18:49;;;;;;;6.78;3.67;;;15.20;99.90;;;;;;2079847;28;20484;-70
2023/09/14 04:19:49;;;;;;;5.60;3.50;;;15.20;99.90;;;;;;2082559;28;20108;-70
2023/09/14 04:20:51;;;;;;;9.38;3.75;;;15.20;99.90;;;;;;2077631;28;20085;-70
2023/09/14 04:21:52;;;;;;;6.82;3.80;;;15.20;99.90;;;;;;2087085;28;20025;-71
2023/09/14 04:22:53;;;;;;;7.43;3.97;;;15.20;99.90;;;;;;2082635;28;20498;-71
2023/09/14 04:23:53;;;;;;;7.78;4.18;;;15.20;99.90;;;;;;2090763;28;20074;-70
2023/09/14 04:24:54;;;;;;;7.38;3.90;;;15.20;99.90;;;;;;2086409;28;20503;-70
2023/09/14 04:25:54;;;;;;;9.13;4.35;;;15.30;99.90;;;;;;2091030;28;20027;-70
2023/09/14 04:26:56;;;;;;;7.95;3.92;;;15.20;99.90;;;;;;2095311;28;20070;-69
2023/09/14 04:27:57;;;;;;;6.13;4.10;;;15.20;99.90;;;;;;2086414;28;20094;-69
2023/09/14 04:28:58;;;;;;;8.98;4.57;;;15.30;99.90;;;;;;2088707;28;20530;-70
2023/09/14 04:29:58;;;;;;;7.60;4.53;;;15.20;99.90;;;;;;2089419;28;20107;-70
2023/09/14 04:31:01;;;;;;;8.80;4.53;;;15.20;99.90;;;;;;2079824;28;20057;-70
2023/09/14 04:32:03;;;;;;;9.63;4.90;;;15.10;99.90;;;;;;2091065;28;20037;-70
2023/09/14 04:33:04;;;;;;;10.00;4.40;;;15.10;99.90;;;;;;2089896;28;20437;-69
2023/09/14 04:34:05;;;;;;;8.60;4.70;;;15.10;99.90;;;;;;2084536;28;20025;-69
2023/09/14 04:35:06;;;;;;;9.30;4.75;;;15.10;99.90;;;;;;2090763;28;20446;-70
2023/09/14 04:36:08;;;;;;;9.20;5.00;;;15.10;99.90;;;;;;2078493;28;20079;-69
2023/09/14 04:37:13;;;;;;;10.07;4.80;;;15.10;99.90;;;;;;2083914;28;20089;-69
2023/09/14 04:38:14;;;;;;;6.15;4.53;;;15.10;99.90;;;;;;2081089;28;20421;-70
2023/09/14 04:39:15;;;;;;;8.30;4.72;;;15.10;99.90;;;;;;2090813;28;20068;-70
2023/09/14 04:40:15;;;;;;;10.52;5.40;;;15.10;99.90;;;;;;2091763;28;20020;-69
2023/09/14 04:41:16;;;;;;;10.48;5.40;;;15.10;99.90;;;;;;2089542;28;20550;-68
2023/09/14 04:42:17;;;;;;;10.45;6.07;;;15.10;99.90;;;;;;2088675;28;20439;-68
2023/09/14 04:43:17;;;;;;;11.00;6.30;;;15.10;99.90;;;;;;2087482;28;20029;-68
2023/09/14 04:44:18;;;;;;;10.93;6.53;;;15.00;99.90;;;;;;2091097;28;20119;-68
2023/09/14 04:45:18;;;;;;;13.23;6.90;;;15.00;99.90;;;;;;2090878;28;20260;-67
2023/09/14 04:46:19;;;;;;;13.27;6.85;;;15.00;99.90;;;;;;2077276;28;20281;-67
2023/09/14 04:47:20;;;;;;;11.02;6.32;;;15.00;99.90;;;;;;2084326;28;20029;-67
2023/09/14 04:48:20;;;;;;;11.48;6.70;;;15.00;99.90;;;;;;2090776;28;20081;-68
2023/09/14 04:49:21;;;;;;;9.38;5.90;;;15.00;99.90;;;;;;2090471;28;20033;-67
2023/09/14 04:50:22;;;;;;;10.27;6.60;;;15.00;99.90;;;;;;2089339;28;20111;-68
2023/09/14 04:51:23;;;;;;;10.70;6.60;;;15.00;99.90;;;;;;2080397;28;20068;-68
2023/09/14 04:52:24;;;;;;;11.15;6.53;;;15.00;99.90;;;;;;2088699;28;20021;-68
2023/09/14 04:53:26;;;;;;;11.85;5.70;;;15.00;99.90;;;;;;2086746;28;20028;-68
2023/09/14 04:54:26;;;;;;;10.10;6.20;;;15.00;99.90;;;;;;2088812;28;20047;-68
2023/09/14 04:55:27;;;;;;;9.73;6.10;;;15.00;99.90;;;;;;2090711;28;20518;-69
2023/09/14 04:56:28;;;;;;;11.35;6.68;;;15.00;99.90;;;;;;2082490;28;20037;-69
2023/09/14 04:57:28;;;;;;;9.50;6.40;;;15.00;99.90;;;;;;2082746;28;20419;-68
2023/09/14 04:58:29;;;;;;;9.10;5.40;;;15.00;99.90;;;;;;2090081;28;20269;-69
2023/09/14 04:59:30;;;;;;;7.10;5.38;;;15.00;99.90;;;;;;2085996;28;20757;-69
2023/09/14 05:00:31;;;;;;;9.35;6.43;;;15.00;99.90;;;;;;2086469;28;20341;-69
2023/09/14 05:01:31;;;;;;;11.38;6.10;;;15.00;99.90;;;;;;2085091;28;20052;-70
2023/09/14 05:02:32;;;;;;;10.80;5.88;;;15.00;99.90;;;;;;2084658;28;20021;-69
2023/09/14 05:03:33;;;;;;;9.85;5.80;;;15.00;99.90;;;;;;2083509;28;20443;-69
2023/09/14 05:04:33;;;;;;;11.23;5.60;;;15.00;99.90;;;;;;2083135;28;20021;-69
2023/09/14 05:05:34;;;;;;;8.75;5.20;;;15.00;99.90;;;;;;2085415;28;20421;-69
2023/09/14 05:06:37;;;;;;;10.25;5.55;;;15.10;99.90;;;;;;2086859;28;20567;-70
2023/09/14 05:07:43;;;;;;;9.70;5.28;;;15.10;99.90;;;;;;2084877;28;20052;-79
2023/09/14 05:08:44;;;;;;;10.10;6.07;;;15.10;99.90;;;;;;2083701;28;20022;-77
2023/09/14 05:09:45;;;;;;;12.40;5.13;;;15.10;99.90;;;;;;2082646;28;20021;-75
2023/09/14 05:10:51;;;;;;;7.53;5.13;;;15.10;99.90;;;;;;2087298;28;20029;-76
2023/09/14 05:11:52;;;;;;;11.55;5.53;;;15.10;99.90;;;;;;2085144;28;20110;-69
2023/09/14 05:12:54;;;;;;;9.43;4.85;;;15.10;99.90;;;;;;2090810;28;20038;-70
2023/09/14 05:13:54;;;;;;;11.48;5.10;;;15.10;99.90;;;;;;2088057;28;20027;-70
2023/09/14 05:14:55;;;;;;;9.75;5.32;;;15.00;99.90;;;;;;2088857;28;20530;-70
2023/09/14 05:15:56;;;;;;;7.72;4.95;;;15.00;99.90;;;;;;2076709;28;20028;-70
2023/09/14 05:16:59;;;;;;;9.70;5.18;;;15.00;99.90;;;;;;2081036;28;20060;-71
2023/09/14 05:18:00;;;;;;;9.55;4.78;;;15.00;99.90;;;;;;2086977;28;20051;-73
2023/09/14 05:19:01;;;;;;;10.60;5.22;;;15.00;99.90;;;;;;2090511;28;20521;-74
2023/09/14 05:20:06;;;;;;;10.07;4.82;;;15.00;99.90;;;;;;2070190;28;20018;-73
2023/09/14 05:21:06;;;;;;;7.90;5.32;;;15.00;99.90;;;;;;2080270;28;20025;-73